sensor_id;sensor_type;location;lat;lon;timestamp;temperature;humidity
46117;DHT22;32591;48.102;11.772;2023-02-10T00:01:30;-2.00;99.90
46117;DHT22;32591;48.102;11.772;2023-02-10T00:03:57;-2.10;99.90
46117;DHT22;32591;48.102;11.772;2023-02-10T00:06:26;-2.10;99.90
46117;DHT22;32591;48.102;11.772;2023-02-10T00:08:57;-2.10;99.90
46117;DHT22;32591;48.102;11.772;2023-02-10T00:11:26;-2.10;99.90
46117;DHT22;32591;48.102;11.772;2023-02-10T00:14:08;-2.10;99.90
46117;DHT22;32591;48.102;11.772;2023-02-10T00:16:35;-2.10;99.90
46117;DHT22;32591;48.102;11.772;2023-02-10T00:19:02;-2.10;99.90
46117;DHT22;32591;48.102;11.772;2023-02-10T00:21:29;-2.10;99.90
46117;DHT22;32591;48.102;11.772;2023-02-10T00:23:57;-2.20;99.90
46117;DHT22;32591;48.102;11.772;2023-02-10T00:26:24;-2.20;99.90
46117;DHT22;32591;48.102;11.772;2023-02-10T00:28:52;-2.30;99.90
46117;DHT22;32591;48.102;11.772;2023-02-10T00:31:19;-2.30;99.90
46117;DHT22;32591;48.102;11.772;2023-02-10T00:33:47;-2.30;99.90
46117;DHT22;32591;48.102;11.772;2023-02-10T00:36:15;-2.30;99.90
46117;DHT22;32591;48.102;11.772;2023-02-10T00:38:42;-2.30;99.90
46117;DHT22;32591;48.102;11.772;2023-02-10T00:41:13;-2.30;99.90
46117;DHT22;32591;48.102;11.772;2023-02-10T00:43:42;-2.20;99.90
46117;DHT22;32591;48.102;11.772;2023-02-10T00:46:10;-2.10;99.90
46117;DHT22;32591;48.102;11.772;2023-02-10T00:48:37;-2.10;99.90
46117;DHT22;32591;48.102;11.772;2023-02-10T00:51:05;-2.20;99.90
46117;DHT22;32591;48.102;11.772;2023-02-10T00:53:33;-2.20;99.90
46117;DHT22;32591;48.102;11.772;2023-02-10T00:56:01;-2.20;99.90
46117;DHT22;32591;48.102;11.772;2023-02-10T00:58:29;-2.20;99.90
46117;DHT22;32591;48.102;11.772;2023-02-10T01:00:57;-2.20;99.90
46117;DHT22;32591;48.102;11.772;2023-02-10T01:03:24;-2.30;99.90
46117;DHT22;32591;48.102;11.772;2023-02-10T01:05:52;-2.30;99.90
46117;DHT22;32591;48.102;11.772;2023-02-10T01:08:18;-2.20;99.90
46117;DHT22;32591;48.102;11.772;2023-02-10T01:10:46;-2.20;99.90
46117;DHT22;32591;48.102;11.772;2023-02-10T01:13:14;-2.20;99.90
46117;DHT22;32591;48.102;11.772;2023-02-10T01:15:43;-2.20;99.90
46117;DHT22;32591;48.102;11.772;2023-02-10T01:18:12;-2.20;99.90
46117;DHT22;32591;48.102;11.772;2023-02-10T01:20:40;-2.20;99.90
46117;DHT22;32591;48.102;11.772;2023-02-10T01:23:08;-2.20;99.90
46117;DHT22;32591;48.102;11.772;2023-02-10T01:25:35;-2.20;99.90
46117;DHT22;32591;48.102;11.772;2023-02-10T01:28:04;-2.20;99.90
46117;DHT22;32591;48.102;11.772;2023-02-10T01:30:31;-2.20;99.90
46117;DHT22;32591;48.102;11.772;2023-02-10T01:33:00;-2.20;99.90
46117;DHT22;32591;48.102;11.772;2023-02-10T01:35:27;-2.30;99.90
46117;DHT22;32591;48.102;11.772;2023-02-10T01:37:54;-2.30;99.90
46117;DHT22;32591;48.102;11.772;2023-02-10T01:40:21;-2.40;99.90
46117;DHT22;32591;48.102;11.772;2023-02-10T01:42:48;-2.40;99.90
46117;DHT22;32591;48.102;11.772;2023-02-10T01:45:19;-2.40;99.90
46117;DHT22;32591;48.102;11.772;2023-02-10T01:47:49;-2.30;99.90
46117;DHT22;32591;48.102;11.772;2023-02-10T01:50:20;-2.30;99.90
46117;DHT22;32591;48.102;11.772;2023-02-10T01:52:49;-2.30;99.90
46117;DHT22;32591;48.102;11.772;2023-02-10T01:55:19;-2.30;99.90
46117;DHT22;32591;48.102;11.772;2023-02-10T01:57:48;-2.30;99.90
46117;DHT22;32591;48.102;11.772;2023-02-10T02:00:20;-2.20;99.90
46117;DHT22;32591;48.102;11.772;2023-02-10T02:02:48;-2.20;99.90
46117;DHT22;32591;48.102;11.772;2023-02-10T02:05:26;-2.20;99.90
46117;DHT22;32591;48.102;11.772;2023-02-10T02:07:57;-2.20;99.90
46117;DHT22;32591;48.102;11.772;2023-02-10T02:10:34;-2.20;99.90
46117;DHT22;32591;48.102;11.772;2023-02-10T02:13:11;-2.20;99.90
46117;DHT22;32591;48.102;11.772;2023-02-10T02:15:46;-2.20;99.90
46117;DHT22;32591;48.102;11.772;2023-02-10T02:18:20;-2.20;99.90
46117;DHT22;32591;48.102;11.772;2023-02-10T02:24:37;-2.20;99.90
46117;DHT22;32591;48.102;11.772;2023-02-10T02:27:20;-2.20;99.90
46117;DHT22;32591;48.102;11.772;2023-02-10T02:33:02;-2.20;99.90
46117;DHT22;32591;48.102;11.772;2023-02-10T02:35:33;-2.20;99.90
46117;DHT22;32591;48.102;11.772;2023-02-10T02:38:04;-2.20;99.90
46117;DHT22;32591;48.102;11.772;2023-02-10T02:40:31;-2.20;99.90
46117;DHT22;32591;48.102;11.772;2023-02-10T02:42:58;-2.20;99.90
46117;DHT22;32591;48.102;11.772;2023-02-10T02:45:32;-2.20;99.90
46117;DHT22;32591;48.102;11.772;2023-02-10T02:48:15;-2.20;99.90
46117;DHT22;32591;48.102;11.772;2023-02-10T02:50:57;-2.20;99.90
46117;DHT22;32591;48.102;11.772;2023-02-10T02:53:35;-2.30;99.90
46117;DHT22;32591;48.102;11.772;2023-02-10T02:56:14;-2.20;99.90
46117;DHT22;32591;48.102;11.772;2023-02-10T02:58:53;-2.30;99.90
46117;DHT22;32591;48.102;11.772;2023-02-10T03:01:25;-2.30;99.90
46117;DHT22;32591;48.102;11.772;2023-02-10T03:03:57;-2.30;99.90
46117;DHT22;32591;48.102;11.772;2023-02-10T03:06:25;-2.30;99.90
46117;DHT22;32591;48.102;11.772;2023-02-10T03:08:52;-2.30;99.90
46117;DHT22;32591;48.102;11.772;2023-02-10T03:11:18;-2.30;99.90
46117;DHT22;32591;48.102;11.772;2023-02-10T03:13:45;-2.30;99.90
46117;DHT22;32591;48.102;11.772;2023-02-10T03:16:12;-2.30;99.90
46117;DHT22;32591;48.102;11.772;2023-02-10T03:18:39;-2.30;99.90
46117;DHT22;32591;48.102;11.772;2023-02-10T03:21:07;-2.40;99.90
46117;DHT22;32591;48.102;11.772;2023-02-10T03:23:34;-2.40;99.90
46117;DHT22;32591;48.102;11.772;2023-02-10T03:26:01;-2.40;99.90
46117;DHT22;32591;48.102;11.772;2023-02-10T03:28:28;-2.40;99.90
46117;DHT22;32591;48.102;11.772;2023-02-10T03:30:55;-2.50;99.90
46117;DHT22;32591;48.102;11.772;2023-02-10T03:33:23;-2.50;99.90
46117;DHT22;32591;48.102;11.772;2023-02-10T03:35:50;-2.60;99.90
46117;DHT22;32591;48.102;11.772;2023-02-10T03:38:18;-2.60;99.90
46117;DHT22;32591;48.102;11.772;2023-02-10T03:40:48;-2.60;99.90
46117;DHT22;32591;48.102;11.772;2023-02-10T03:43:15;-2.60;99.90
46117;DHT22;32591;48.102;11.772;2023-02-10T03:45:42;-2.70;99.90
46117;DHT22;32591;48.102;11.772;2023-02-10T03:48:09;-2.70;99.90
46117;DHT22;32591;48.102;11.772;2023-02-10T03:50:36;-2.70;99.90
46117;DHT22;32591;48.102;11.772;2023-02-10T03:53:03;-2.70;99.90
46117;DHT22;32591;48.102;11.772;2023-02-10T03:55:32;-2.80;99.90
46117;DHT22;32591;48.102;11.772;2023-02-10T03:57:59;-2.80;99.90
46117;DHT22;32591;48.102;11.772;2023-02-10T04:00:27;-2.80;99.90
46117;DHT22;32591;48.102;11.772;2023-02-10T04:02:54;-2.90;99.90
46117;DHT22;32591;48.102;11.772;2023-02-10T04:05:21;-2.90;99.90
46117;DHT22;32591;48.102;11.772;2023-02-10T04:07:48;-3.00;99.90
46117;DHT22;32591;48.102;11.772;2023-02-10T04:10:15;-3.00;99.90
46117;DHT22;32591;48.102;11.772;2023-02-10T04:12:43;-3.00;99.90
46117;DHT22;32591;48.102;11.772;2023-02-10T04:15:10;-3.00;99.90
46117;DHT22;32591;48.102;11.772;2023-02-10T04:17:37;-3.00;99.90
46117;DHT22;32591;48.102;11.772;2023-02-10T04:20:04;-3.10;99.90
46117;DHT22;32591;48.102;11.772;2023-02-10T04:22:32;-3.10;99.90
46117;DHT22;32591;48.102;11.772;2023-02-10T04:24:59;-3.00;99.90
46117;DHT22;32591;48.102;11.772;2023-02-10T04:27:26;-3.10;99.90
46117;DHT22;32591;48.102;11.772;2023-02-10T04:29:54;-3.10;99.90
46117;DHT22;32591;48.102;11.772;2023-02-10T04:32:22;-3.10;99.90
46117;DHT22;32591;48.102;11.772;2023-02-10T04:34:49;-3.10;99.90
46117;DHT22;32591;48.102;11.772;2023-02-10T04:37:16;-3.10;99.90
46117;DHT22;32591;48.102;11.772;2023-02-10T04:39:43;-3.10;99.90
46117;DHT22;32591;48.102;11.772;2023-02-10T04:42:10;-3.10;99.90
46117;DHT22;32591;48.102;11.772;2023-02-10T04:44:37;-3.10;99.90
46117;DHT22;32591;48.102;11.772;2023-02-10T04:47:06;-3.10;99.90
46117;DHT22;32591;48.102;11.772;2023-02-10T04:49:33;-3.20;99.90
46117;DHT22;32591;48.102;11.772;2023-02-10T04:51:59;-3.20;99.90
46117;DHT22;32591;48.102;11.772;2023-02-10T04:54:26;-3.20;99.90
46117;DHT22;32591;48.102;11.772;2023-02-10T04:56:53;-3.30;99.90
46117;DHT22;32591;48.102;11.772;2023-02-10T04:59:20;-3.30;99.90
46117;DHT22;32591;48.102;11.772;2023-02-10T05:01:47;-3.40;99.90
46117;DHT22;32591;48.102;11.772;2023-02-10T05:04:16;-3.40;99.90
46117;DHT22;32591;48.102;11.772;2023-02-10T05:06:43;-3.40;99.90
46117;DHT22;32591;48.102;11.772;2023-02-10T05:09:10;-3.50;99.90
46117;DHT22;32591;48.102;11.772;2023-02-10T05:11:37;-3.40;99.90
46117;DHT22;32591;48.102;11.772;2023-02-10T05:14:04;-3.40;99.90
46117;DHT22;32591;48.102;11.772;2023-02-10T05:16:31;-3.50;99.90
46117;DHT22;32591;48.102;11.772;2023-02-10T05:18:58;-3.50;99.90
46117;DHT22;32591;48.102;11.772;2023-02-10T05:21:27;-3.50;99.90
46117;DHT22;32591;48.102;11.772;2023-02-10T05:23:56;-3.50;99.90
46117;DHT22;32591;48.102;11.772;2023-02-10T05:26:23;-3.60;99.90
46117;DHT22;32591;48.102;11.772;2023-02-10T05:28:50;-3.60;99.90
46117;DHT22;32591;48.102;11.772;2023-02-10T05:31:17;-3.60;99.90
46117;DHT22;32591;48.102;11.772;2023-02-10T05:33:44;-3.70;99.90
46117;DHT22;32591;48.102;11.772;2023-02-10T05:36:11;-3.70;99.90
46117;DHT22;32591;48.102;11.772;2023-02-10T05:38:39;-3.70;99.90
46117;DHT22;32591;48.102;11.772;2023-02-10T05:41:27;-3.70;99.90
46117;DHT22;32591;48.102;11.772;2023-02-10T05:44:04;-3.70;99.90
46117;DHT22;32591;48.102;11.772;2023-02-10T05:46:31;-3.70;99.90
46117;DHT22;32591;48.102;11.772;2023-02-10T05:48:58;-3.80;99.90
46117;DHT22;32591;48.102;11.772;2023-02-10T05:51:24;-3.80;99.90
46117;DHT22;32591;48.102;11.772;2023-02-10T05:53:53;-3.80;99.90
46117;DHT22;32591;48.102;11.772;2023-02-10T05:56:20;-3.80;99.90
46117;DHT22;32591;48.102;11.772;2023-02-10T05:58:47;-3.80;99.90
46117;DHT22;32591;48.102;11.772;2023-02-10T06:01:14;-3.90;99.90
46117;DHT22;32591;48.102;11.772;2023-02-10T06:03:41;-3.90;99.90
46117;DHT22;32591;48.102;11.772;2023-02-10T06:06:08;-3.90;99.90
46117;DHT22;32591;48.102;11.772;2023-02-10T06:08:36;-3.90;99.90
46117;DHT22;32591;48.102;11.772;2023-02-10T06:11:05;-4.00;99.90
46117;DHT22;32591;48.102;11.772;2023-02-10T06:13:32;-4.00;99.90
46117;DHT22;32591;48.102;11.772;2023-02-10T06:15:58;-4.00;99.90
46117;DHT22;32591;48.102;11.772;2023-02-10T06:18:27;-4.00;99.90
46117;DHT22;32591;48.102;11.772;2023-02-10T06:20:54;-4.00;99.90
46117;DHT22;32591;48.102;11.772;2023-02-10T06:23:22;-4.00;99.90
46117;DHT22;32591;48.102;11.772;2023-02-10T06:25:50;-4.00;99.90
46117;DHT22;32591;48.102;11.772;2023-02-10T06:28:21;-4.00;99.90
46117;DHT22;32591;48.102;11.772;2023-02-10T06:30:48;-4.00;99.90
46117;DHT22;32591;48.102;11.772;2023-02-10T06:33:15;-4.00;99.90
46117;DHT22;32591;48.102;11.772;2023-02-10T06:35:42;-4.00;99.90
46117;DHT22;32591;48.102;11.772;2023-02-10T06:38:09;-4.10;99.90
46117;DHT22;32591;48.102;11.772;2023-02-10T06:40:36;-4.00;99.90
46117;DHT22;32591;48.102;11.772;2023-02-10T06:43:03;-4.00;99.90
46117;DHT22;32591;48.102;11.772;2023-02-10T06:45:31;-4.00;99.90
46117;DHT22;32591;48.102;11.772;2023-02-10T06:48:00;-4.00;99.90
46117;DHT22;32591;48.102;11.772;2023-02-10T06:50:27;-3.90;99.90
46117;DHT22;32591;48.102;11.772;2023-02-10T06:52:54;-3.80;99.90
46117;DHT22;32591;48.102;11.772;2023-02-10T06:55:21;-3.80;99.90
46117;DHT22;32591;48.102;11.772;2023-02-10T06:57:48;-3.70;99.90
46117;DHT22;32591;48.102;11.772;2023-02-10T07:00:15;-3.70;99.90
46117;DHT22;32591;48.102;11.772;2023-02-10T07:02:43;-3.60;99.90
46117;DHT22;32591;48.102;11.772;2023-02-10T07:05:11;-3.50;99.90
46117;DHT22;32591;48.102;11.772;2023-02-10T07:07:38;-3.50;99.90
46117;DHT22;32591;48.102;11.772;2023-02-10T07:10:07;-3.40;99.90
46117;DHT22;32591;48.102;11.772;2023-02-10T07:12:34;-3.40;99.90
46117;DHT22;32591;48.102;11.772;2023-02-10T07:15:01;-3.40;99.90
46117;DHT22;32591;48.102;11.772;2023-02-10T07:17:28;-3.30;99.90
46117;DHT22;32591;48.102;11.772;2023-02-10T07:19:56;-3.20;99.90
46117;DHT22;32591;48.102;11.772;2023-02-10T07:22:23;-3.20;99.90
46117;DHT22;32591;48.102;11.772;2023-02-10T07:24:50;-3.10;99.90
46117;DHT22;32591;48.102;11.772;2023-02-10T07:27:17;-3.00;99.90
46117;DHT22;32591;48.102;11.772;2023-02-10T07:29:44;-3.00;99.90
46117;DHT22;32591;48.102;11.772;2023-02-10T07:32:11;-2.90;99.90
46117;DHT22;32591;48.102;11.772;2023-02-10T07:34:38;-2.80;99.90
46117;DHT22;32591;48.102;11.772;2023-02-10T07:37:07;-2.70;99.90
46117;DHT22;32591;48.102;11.772;2023-02-10T07:39:35;-2.60;99.90
46117;DHT22;32591;48.102;11.772;2023-02-10T07:42:02;-2.60;99.90
46117;DHT22;32591;48.102;11.772;2023-02-10T07:44:29;-2.50;99.90
46117;DHT22;32591;48.102;11.772;2023-02-10T07:46:56;-2.40;99.90
46117;DHT22;32591;48.102;11.772;2023-02-10T07:49:22;-2.30;99.90
46117;DHT22;32591;48.102;11.772;2023-02-10T07:51:52;-2.20;99.90
46117;DHT22;32591;48.102;11.772;2023-02-10T07:54:20;-2.10;99.90
46117;DHT22;32591;48.102;11.772;2023-02-10T07:56:47;-2.00;99.90
46117;DHT22;32591;48.102;11.772;2023-02-10T07:59:14;-1.90;99.90
46117;DHT22;32591;48.102;11.772;2023-02-10T08:01:42;-1.90;99.90
46117;DHT22;32591;48.102;11.772;2023-02-10T08:04:11;-1.70;99.90
46117;DHT22;32591;48.102;11.772;2023-02-10T08:06:38;-1.70;99.90
46117;DHT22;32591;48.102;11.772;2023-02-10T08:09:06;-1.60;99.90
46117;DHT22;32591;48.102;11.772;2023-02-10T08:11:34;-1.50;99.90
46117;DHT22;32591;48.102;11.772;2023-02-10T08:14:02;-1.40;99.90
46117;DHT22;32591;48.102;11.772;2023-02-10T08:16:30;-1.30;99.90
46117;DHT22;32591;48.102;11.772;2023-02-10T08:18:57;-1.30;99.90
46117;DHT22;32591;48.102;11.772;2023-02-10T08:21:24;-1.20;99.90
46117;DHT22;32591;48.102;11.772;2023-02-10T08:23:52;-1.10;99.90
46117;DHT22;32591;48.102;11.772;2023-02-10T08:26:21;-1.00;99.90
46117;DHT22;32591;48.102;11.772;2023-02-10T08:28:50;-0.90;99.90
46117;DHT22;32591;48.102;11.772;2023-02-10T08:31:20;-0.80;99.90
46117;DHT22;32591;48.102;11.772;2023-02-10T08:33:48;-0.70;99.90
46117;DHT22;32591;48.102;11.772;2023-02-10T08:36:16;-0.60;99.90
46117;DHT22;32591;48.102;11.772;2023-02-10T08:38:45;-0.50;99.90
46117;DHT22;32591;48.102;11.772;2023-02-10T08:41:12;-0.40;99.90
46117;DHT22;32591;48.102;11.772;2023-02-10T08:43:40;-0.30;99.90
46117;DHT22;32591;48.102;11.772;2023-02-10T08:46:08;-0.20;99.90
46117;DHT22;32591;48.102;11.772;2023-02-10T08:48:36;0.10;99.90
46117;DHT22;32591;48.102;11.772;2023-02-10T08:51:06;0.20;99.90
46117;DHT22;32591;48.102;11.772;2023-02-10T08:53:33;0.20;99.90
46117;DHT22;32591;48.102;11.772;2023-02-10T08:56:05;0.20;99.90
46117;DHT22;32591;48.102;11.772;2023-02-10T08:58:33;0.20;99.90
46117;DHT22;32591;48.102;11.772;2023-02-10T09:01:01;0.40;99.90
46117;DHT22;32591;48.102;11.772;2023-02-10T09:03:29;0.50;99.90
46117;DHT22;32591;48.102;11.772;2023-02-10T09:05:56;0.50;99.90
46117;DHT22;32591;48.102;11.772;2023-02-10T09:08:23;0.50;99.90
46117;DHT22;32591;48.102;11.772;2023-02-10T09:10:50;0.60;99.90
46117;DHT22;32591;48.102;11.772;2023-02-10T09:13:17;0.70;99.90
46117;DHT22;32591;48.102;11.772;2023-02-10T09:15:44;0.80;99.90
46117;DHT22;32591;48.102;11.772;2023-02-10T09:18:11;0.90;99.90
46117;DHT22;32591;48.102;11.772;2023-02-10T09:20:39;1.00;99.90
46117;DHT22;32591;48.102;11.772;2023-02-10T09:23:06;1.00;99.90
46117;DHT22;32591;48.102;11.772;2023-02-10T09:25:33;1.00;99.90
46117;DHT22;32591;48.102;11.772;2023-02-10T09:28:00;1.10;99.90
46117;DHT22;32591;48.102;11.772;2023-02-10T09:30:27;1.20;99.90
46117;DHT22;32591;48.102;11.772;2023-02-10T09:32:54;1.30;99.90
46117;DHT22;32591;48.102;11.772;2023-02-10T09:35:21;1.30;99.90
46117;DHT22;32591;48.102;11.772;2023-02-10T09:37:50;1.40;99.90
46117;DHT22;32591;48.102;11.772;2023-02-10T09:40:22;1.60;99.90
46117;DHT22;32591;48.102;11.772;2023-02-10T09:43:02;1.60;99.90
46117;DHT22;32591;48.102;11.772;2023-02-10T09:45:38;1.80;99.90
46117;DHT22;32591;48.102;11.772;2023-02-10T09:48:25;1.90;99.90
46117;DHT22;32591;48.102;11.772;2023-02-10T09:51:04;2.00;99.90
46117;DHT22;32591;48.102;11.772;2023-02-10T09:53:37;2.20;99.90
46117;DHT22;32591;48.102;11.772;2023-02-10T09:56:07;2.20;99.90
46117;DHT22;32591;48.102;11.772;2023-02-10T09:58:41;2.20;99.90
46117;DHT22;32591;48.102;11.772;2023-02-10T10:01:13;2.20;99.90
46117;DHT22;32591;48.102;11.772;2023-02-10T10:03:45;2.20;99.90
46117;DHT22;32591;48.102;11.772;2023-02-10T10:06:21;2.20;99.90
46117;DHT22;32591;48.102;11.772;2023-02-10T10:09:00;2.30;99.90
46117;DHT22;32591;48.102;11.772;2023-02-10T10:11:35;2.40;99.90
46117;DHT22;32591;48.102;11.772;2023-02-10T10:14:05;2.60;99.90
46117;DHT22;32591;48.102;11.772;2023-02-10T10:16:54;2.70;99.90
46117;DHT22;32591;48.102;11.772;2023-02-10T10:19:54;2.80;99.90
46117;DHT22;32591;48.102;11.772;2023-02-10T10:22:36;2.90;99.90
46117;DHT22;32591;48.102;11.772;2023-02-10T10:25:37;3.10;99.90
46117;DHT22;32591;48.102;11.772;2023-02-10T10:28:25;3.20;99.90
46117;DHT22;32591;48.102;11.772;2023-02-10T10:31:02;3.30;99.90
46117;DHT22;32591;48.102;11.772;2023-02-10T10:33:36;3.30;99.90
46117;DHT22;32591;48.102;11.772;2023-02-10T10:36:09;3.30;99.90
46117;DHT22;32591;48.102;11.772;2023-02-10T10:38:43;3.50;99.90
46117;DHT22;32591;48.102;11.772;2023-02-10T10:41:13;3.60;99.90
46117;DHT22;32591;48.102;11.772;2023-02-10T10:43:46;3.70;99.70
46117;DHT22;32591;48.102;11.772;2023-02-10T10:46:18;3.80;99.80
46117;DHT22;32591;48.102;11.772;2023-02-10T10:48:48;3.80;99.30
46117;DHT22;32591;48.102;11.772;2023-02-10T10:51:16;4.00;99.10
46117;DHT22;32591;48.102;11.772;2023-02-10T10:53:45;4.00;98.40
46117;DHT22;32591;48.102;11.772;2023-02-10T10:56:25;4.00;98.30
46117;DHT22;32591;48.102;11.772;2023-02-10T10:58:57;4.10;98.40
46117;DHT22;32591;48.102;11.772;2023-02-10T11:01:32;4.00;99.10
46117;DHT22;32591;48.102;11.772;2023-02-10T11:04:05;4.00;99.10
46117;DHT22;32591;48.102;11.772;2023-02-10T11:06:34;4.00;98.60
46117;DHT22;32591;48.102;11.772;2023-02-10T11:09:05;4.00;99.80
46117;DHT22;32591;48.102;11.772;2023-02-10T11:11:42;4.00;98.60
46117;DHT22;32591;48.102;11.772;2023-02-10T11:14:15;4.00;98.50
46117;DHT22;32591;48.102;11.772;2023-02-10T11:16:46;4.00;98.70
46117;DHT22;32591;48.102;11.772;2023-02-10T11:19:21;4.10;98.60
46117;DHT22;32591;48.102;11.772;2023-02-10T11:21:49;4.30;97.40
46117;DHT22;32591;48.102;11.772;2023-02-10T11:24:22;4.40;97.00
46117;DHT22;32591;48.102;11.772;2023-02-10T11:26:57;4.50;96.80
46117;DHT22;32591;48.102;11.772;2023-02-10T11:29:28;4.50;96.30
46117;DHT22;32591;48.102;11.772;2023-02-10T11:31:56;4.60;96.00
46117;DHT22;32591;48.102;11.772;2023-02-10T11:34:26;4.50;95.10
46117;DHT22;32591;48.102;11.772;2023-02-10T11:36:56;4.40;96.40
46117;DHT22;32591;48.102;11.772;2023-02-10T11:39:28;4.60;95.90
46117;DHT22;32591;48.102;11.772;2023-02-10T11:42:07;4.70;95.10
46117;DHT22;32591;48.102;11.772;2023-02-10T11:44:34;4.70;94.40
46117;DHT22;32591;48.102;11.772;2023-02-10T11:47:04;4.80;94.30
46117;DHT22;32591;48.102;11.772;2023-02-10T11:49:34;5.00;94.70
46117;DHT22;32591;48.102;11.772;2023-02-10T11:52:03;4.90;93.90
46117;DHT22;32591;48.102;11.772;2023-02-10T11:54:31;4.80;93.50
46117;DHT22;32591;48.102;11.772;2023-02-10T11:57:14;4.90;93.70
46117;DHT22;32591;48.102;11.772;2023-02-10T12:00:10;4.90;93.20
46117;DHT22;32591;48.102;11.772;2023-02-10T12:03:00;5.00;93.60
46117;DHT22;32591;48.102;11.772;2023-02-10T12:05:37;5.20;93.50
46117;DHT22;32591;48.102;11.772;2023-02-10T12:08:13;5.20;92.90
46117;DHT22;32591;48.102;11.772;2023-02-10T12:10:46;5.20;92.50
46117;DHT22;32591;48.102;11.772;2023-02-10T12:13:29;5.20;92.40
46117;DHT22;32591;48.102;11.772;2023-02-10T12:16:12;5.30;93.70
46117;DHT22;32591;48.102;11.772;2023-02-10T12:18:52;5.40;91.80
46117;DHT22;32591;48.102;11.772;2023-02-10T12:24:50;5.30;91.40
46117;DHT22;32591;48.102;11.772;2023-02-10T12:27:31;5.40;91.60
46117;DHT22;32591;48.102;11.772;2023-02-10T12:30:10;5.50;91.00
46117;DHT22;32591;48.102;11.772;2023-02-10T12:32:50;5.40;91.40
46117;DHT22;32591;48.102;11.772;2023-02-10T12:35:25;5.50;91.10
46117;DHT22;32591;48.102;11.772;2023-02-10T12:38:04;5.60;90.50
46117;DHT22;32591;48.102;11.772;2023-02-10T12:40:58;5.60;90.20
46117;DHT22;32591;48.102;11.772;2023-02-10T12:43:42;5.60;90.00
46117;DHT22;32591;48.102;11.772;2023-02-10T12:46:25;5.60;91.00
46117;DHT22;32591;48.102;11.772;2023-02-10T12:49:09;5.70;89.60
46117;DHT22;32591;48.102;11.772;2023-02-10T12:54:39;5.70;86.50
46117;DHT22;32591;48.102;11.772;2023-02-10T12:57:11;5.70;84.70
46117;DHT22;32591;48.102;11.772;2023-02-10T12:59:48;5.80;88.10
46117;DHT22;32591;48.102;11.772;2023-02-10T13:02:22;5.90;85.70
46117;DHT22;32591;48.102;11.772;2023-02-10T13:04:55;6.00;81.80
46117;DHT22;32591;48.102;11.772;2023-02-10T13:07:30;6.20;80.80
46117;DHT22;32591;48.102;11.772;2023-02-10T13:10:16;6.20;80.60
46117;DHT22;32591;48.102;11.772;2023-02-10T13:12:48;6.10;79.40
46117;DHT22;32591;48.102;11.772;2023-02-10T13:15:21;6.00;78.30
46117;DHT22;32591;48.102;11.772;2023-02-10T13:17:52;6.20;78.80
46117;DHT22;32591;48.102;11.772;2023-02-10T13:20:29;6.30;81.40
46117;DHT22;32591;48.102;11.772;2023-02-10T13:23:10;6.30;79.30
46117;DHT22;32591;48.102;11.772;2023-02-10T13:25:50;6.30;76.90
46117;DHT22;32591;48.102;11.772;2023-02-10T13:28:28;6.20;78.00
46117;DHT22;32591;48.102;11.772;2023-02-10T13:31:15;6.30;77.20
46117;DHT22;32591;48.102;11.772;2023-02-10T13:33:59;6.40;78.30
46117;DHT22;32591;48.102;11.772;2023-02-10T13:36:32;6.50;78.60
46117;DHT22;32591;48.102;11.772;2023-02-10T13:39:02;6.50;77.90
46117;DHT22;32591;48.102;11.772;2023-02-10T13:41:42;6.50;77.80
46117;DHT22;32591;48.102;11.772;2023-02-10T13:44:23;6.70;78.40
46117;DHT22;32591;48.102;11.772;2023-02-10T13:46:57;6.40;78.90
46117;DHT22;32591;48.102;11.772;2023-02-10T13:49:48;6.40;80.30
46117;DHT22;32591;48.102;11.772;2023-02-10T13:52:19;6.50;79.60
46117;DHT22;32591;48.102;11.772;2023-02-10T13:54:57;6.50;78.80
46117;DHT22;32591;48.102;11.772;2023-02-10T13:57:28;6.50;79.70
46117;DHT22;32591;48.102;11.772;2023-02-10T14:00:18;6.60;77.00
46117;DHT22;32591;48.102;11.772;2023-02-10T14:02:59;6.60;74.80
46117;DHT22;32591;48.102;11.772;2023-02-10T14:05:30;6.60;75.40
46117;DHT22;32591;48.102;11.772;2023-02-10T14:07:58;6.60;76.30
46117;DHT22;32591;48.102;11.772;2023-02-10T14:10:31;6.70;77.40
46117;DHT22;32591;48.102;11.772;2023-02-10T14:13:03;6.80;76.30
46117;DHT22;32591;48.102;11.772;2023-02-10T14:15:33;6.70;76.00
46117;DHT22;32591;48.102;11.772;2023-02-10T14:18:04;6.70;76.10
46117;DHT22;32591;48.102;11.772;2023-02-10T14:20:36;6.70;75.40
46117;DHT22;32591;48.102;11.772;2023-02-10T14:23:05;6.80;77.00
46117;DHT22;32591;48.102;11.772;2023-02-10T14:25:39;6.80;76.40
46117;DHT22;32591;48.102;11.772;2023-02-10T14:28:19;6.80;76.50
46117;DHT22;32591;48.102;11.772;2023-02-10T14:30:52;6.70;77.10
46117;DHT22;32591;48.102;11.772;2023-02-10T14:33:25;6.80;77.60
46117;DHT22;32591;48.102;11.772;2023-02-10T14:35:56;6.80;77.30
46117;DHT22;32591;48.102;11.772;2023-02-10T14:38:26;7.00;78.10
46117;DHT22;32591;48.102;11.772;2023-02-10T14:40:55;7.10;78.00
46117;DHT22;32591;48.102;11.772;2023-02-10T14:43:25;7.20;76.20
46117;DHT22;32591;48.102;11.772;2023-02-10T14:45:54;7.20;73.70
46117;DHT22;32591;48.102;11.772;2023-02-10T14:48:24;7.00;73.30
46117;DHT22;32591;48.102;11.772;2023-02-10T14:50:59;6.90;74.50
46117;DHT22;32591;48.102;11.772;2023-02-10T14:53:33;6.80;73.70
46117;DHT22;32591;48.102;11.772;2023-02-10T14:56:05;6.70;73.80
46117;DHT22;32591;48.102;11.772;2023-02-10T14:58:32;6.60;75.00
46117;DHT22;32591;48.102;11.772;2023-02-10T15:01:01;6.60;74.20
46117;DHT22;32591;48.102;11.772;2023-02-10T15:03:30;6.60;74.50
46117;DHT22;32591;48.102;11.772;2023-02-10T15:06:00;6.50;75.40
46117;DHT22;32591;48.102;11.772;2023-02-10T15:08:33;6.50;78.40
46117;DHT22;32591;48.102;11.772;2023-02-10T15:11:06;6.50;79.00
46117;DHT22;32591;48.102;11.772;2023-02-10T15:13:38;6.60;79.50
46117;DHT22;32591;48.102;11.772;2023-02-10T15:16:08;6.60;81.10
46117;DHT22;32591;48.102;11.772;2023-02-10T15:18:40;6.60;79.70
46117;DHT22;32591;48.102;11.772;2023-02-10T15:21:26;6.70;78.90
46117;DHT22;32591;48.102;11.772;2023-02-10T15:23:54;6.70;78.50
46117;DHT22;32591;48.102;11.772;2023-02-10T15:26:24;7.00;92.60
46117;DHT22;32591;48.102;11.772;2023-02-10T15:29:00;7.10;88.90
46117;DHT22;32591;48.102;11.772;2023-02-10T15:31:30;7.10;85.60
46117;DHT22;32591;48.102;11.772;2023-02-10T15:33:59;7.10;86.80
46117;DHT22;32591;48.102;11.772;2023-02-10T15:36:30;7.00;86.20
46117;DHT22;32591;48.102;11.772;2023-02-10T15:39:01;7.00;87.50
46117;DHT22;32591;48.102;11.772;2023-02-10T15:41:34;7.00;90.00
46117;DHT22;32591;48.102;11.772;2023-02-10T15:44:20;7.00;89.90
46117;DHT22;32591;48.102;11.772;2023-02-10T15:46:55;6.80;87.50
46117;DHT22;32591;48.102;11.772;2023-02-10T15:49:47;6.70;89.60
46117;DHT22;32591;48.102;11.772;2023-02-10T15:52:19;6.70;90.20
46117;DHT22;32591;48.102;11.772;2023-02-10T15:54:48;6.70;89.90
46117;DHT22;32591;48.102;11.772;2023-02-10T15:57:17;6.70;90.20
46117;DHT22;32591;48.102;11.772;2023-02-10T15:59:44;6.50;90.90